createdAt,value
2023-02-19T00:04:56.964Z,10.37
2023-02-19T00:09:56.909Z,10.43
2023-02-19T00:14:56.923Z,10.37
2023-02-19T00:19:56.909Z,9.81
2023-02-19T00:24:56.905Z,9.62
2023-02-19T00:29:56.912Z,9.87
2023-02-19T00:34:56.871Z,9.81
2023-02-19T00:39:56.878Z,9.87
2023-02-19T00:44:56.863Z,9.93
2023-02-19T00:49:56.952Z,9.93
2023-02-19T00:54:56.863Z,9.93
2023-02-19T00:59:56.858Z,10
2023-02-19T01:04:56.881Z,10.06
2023-02-19T01:09:56.850Z,10.18
2023-02-19T01:14:56.831Z,10
2023-02-19T01:19:56.824Z,10.12
2023-02-19T01:24:56.893Z,10.06
2023-02-19T01:29:56.820Z,10.06
2023-02-19T01:34:56.823Z,10
2023-02-19T01:39:56.818Z,10.12
2023-02-19T01:44:56.821Z,10.06
2023-02-19T01:49:56.818Z,9.81
2023-02-19T01:54:56.823Z,9.75
2023-02-19T01:59:56.791Z,9.56
2023-02-19T02:04:56.793Z,9.12
2023-02-19T02:09:56.808Z,9.06
2023-02-19T02:14:56.793Z,9
2023-02-19T02:19:56.787Z,9.06
2023-02-19T02:24:56.769Z,8.87
2023-02-19T02:29:56.770Z,8.5
2023-02-19T02:34:56.746Z,7.93
2023-02-19T02:39:56.741Z,8.18
2023-02-19T02:44:56.768Z,8.06
2023-02-19T02:49:57.010Z,8.18
2023-02-19T02:54:56.745Z,8.18
2023-02-19T02:59:56.757Z,8.12
2023-02-19T03:04:56.730Z,8.18
2023-02-19T03:09:56.713Z,8.12
2023-02-19T03:14:56.728Z,8
2023-02-19T03:19:56.741Z,8
2023-02-19T03:24:56.782Z,8.06
2023-02-19T03:29:56.704Z,8
2023-02-19T03:34:56.734Z,7.87
2023-02-19T03:39:56.701Z,7.81
2023-02-19T03:44:56.705Z,7.68
2023-02-19T03:49:56.702Z,7.68
2023-02-19T03:54:56.721Z,7.56
2023-02-19T03:59:56.695Z,7.62
2023-02-19T04:04:56.728Z,7.5
2023-02-19T04:09:56.678Z,7.5
2023-02-19T04:14:56.688Z,7.56
2023-02-19T04:19:56.679Z,7.5
2023-02-19T04:24:56.674Z,7.5
2023-02-19T04:29:56.657Z,7.43
2023-02-19T04:34:56.648Z,7.56
2023-02-19T04:39:56.652Z,7.62
2023-02-19T04:44:56.638Z,7.62
2023-02-19T04:49:56.657Z,7.5
2023-02-19T04:54:56.647Z,7.56
2023-02-19T04:59:56.630Z,7.56
2023-02-19T05:04:56.613Z,7.62
2023-02-19T05:09:56.648Z,7.5
2023-02-19T05:14:56.641Z,7.56
2023-02-19T05:19:56.635Z,7.56
2023-02-19T05:24:56.615Z,7.68
2023-02-19T05:29:56.598Z,7.62
2023-02-19T05:34:56.618Z,7.62
2023-02-19T05:39:56.593Z,7.62
2023-02-19T05:44:56.589Z,7.68
2023-02-19T05:49:56.584Z,7.68
2023-02-19T05:54:56.573Z,7.62
2023-02-19T05:59:56.576Z,7.68
2023-02-19T06:04:56.575Z,7.68
2023-02-19T06:29:56.556Z,7.81
2023-02-19T06:34:56.551Z,7.87
2023-02-19T06:39:56.554Z,7.87
2023-02-19T06:44:56.544Z,7.93
2023-02-19T06:49:56.533Z,8.18
2023-02-19T06:54:56.557Z,8.37
2023-02-19T06:59:56.522Z,8.68
2023-02-19T07:04:56.514Z,8.5
2023-02-19T07:09:56.538Z,8.62
2023-02-19T07:14:56.514Z,8.5
2023-02-19T07:19:56.510Z,8.68
2023-02-19T07:24:56.508Z,8.68
2023-02-19T07:29:56.522Z,8.87
2023-02-19T07:34:56.522Z,8.56
2023-02-19T07:39:56.493Z,8.56
2023-02-19T07:44:57.521Z,8
2023-02-19T07:49:56.488Z,8.12
2023-02-19T07:54:56.480Z,8.06
2023-02-19T07:59:56.483Z,8.31
2023-02-19T08:04:56.490Z,7.75
2023-02-19T08:09:56.466Z,7.56
2023-02-19T08:19:56.555Z,7.31
2023-02-19T08:24:56.444Z,7.25
2023-02-19T08:29:56.461Z,7.37
2023-02-19T08:34:56.447Z,7.5
2023-02-19T08:39:56.429Z,7.37
2023-02-19T08:49:56.429Z,8.31
2023-02-19T08:54:56.460Z,8.25
2023-02-19T08:59:56.410Z,8.81
2023-02-19T09:39:56.377Z,8.56
2023-02-19T09:44:56.359Z,8.62
2023-02-19T09:49:56.401Z,8.56
2023-02-19T09:54:57.232Z,8.37
2023-02-19T09:59:56.356Z,7.81
2023-02-19T10:04:56.386Z,8.06
2023-02-19T10:09:56.356Z,8.68
2023-02-19T10:14:56.328Z,9.06
2023-02-19T10:24:56.333Z,9.75
2023-02-19T10:29:56.318Z,9.75
2023-02-19T10:34:56.329Z,9.37
2023-02-19T10:39:56.361Z,9.5
2023-02-19T10:44:56.305Z,9.43
2023-02-19T10:49:56.310Z,9.62
2023-02-19T10:54:56.308Z,9.87
2023-02-19T10:59:56.292Z,10.25
2023-02-19T11:04:56.298Z,10.31
2023-02-19T11:09:56.302Z,10.5
2023-02-19T11:14:56.282Z,10.62
2023-02-19T11:19:56.280Z,10.81
2023-02-19T11:24:59.189Z,11
2023-02-19T11:29:56.279Z,11.18
2023-02-19T11:34:56.252Z,11
2023-02-19T11:39:56.379Z,10.62
2023-02-19T11:44:56.269Z,10.75
2023-02-19T11:49:56.244Z,10.93
2023-02-19T11:54:56.221Z,10.87
2023-02-19T11:59:56.255Z,10.93
2023-02-19T12:04:56.223Z,11
2023-02-19T12:09:56.226Z,10.87
2023-02-19T12:14:56.201Z,10.56
2023-02-19T12:19:56.219Z,10.5
2023-02-19T12:24:56.218Z,10.56
2023-02-19T12:29:56.215Z,9.81
2023-02-19T12:34:56.196Z,10.18
2023-02-19T12:39:56.206Z,10.81
2023-02-19T12:44:56.212Z,10.56
2023-02-19T12:49:56.176Z,10
2023-02-19T12:54:56.193Z,10
2023-02-19T12:59:56.157Z,10.18
2023-02-19T13:04:56.176Z,10.62
2023-02-19T13:09:56.200Z,10.06
2023-02-19T13:14:56.165Z,9.62
2023-02-19T13:19:56.163Z,9.81
2023-02-19T13:24:56.147Z,9.81
2023-02-19T13:29:56.145Z,9.81
2023-02-19T13:34:56.182Z,9.75
2023-02-19T13:39:56.191Z,9.75
2023-02-19T13:44:57.132Z,9.93
2023-02-19T13:49:56.156Z,9.81
2023-02-19T13:54:56.113Z,9.5
2023-02-19T13:59:56.131Z,9.56
2023-02-19T14:09:56.118Z,9.31
2023-02-19T14:14:56.116Z,9.31
2023-02-19T14:19:56.118Z,9.56
2023-02-19T14:24:56.098Z,9.43
2023-02-19T14:29:56.069Z,9.5
2023-02-19T14:34:56.074Z,9.75
2023-02-19T14:39:56.061Z,9.56
2023-02-19T14:44:56.055Z,9.68
2023-02-19T14:49:56.051Z,9.62
2023-02-19T14:54:56.064Z,9.43
2023-02-19T14:59:56.060Z,9.43
2023-02-19T15:04:56.286Z,9.25
2023-02-19T15:09:56.068Z,9.18
2023-02-19T15:14:56.015Z,9
2023-02-19T15:19:56.014Z,8.87
2023-02-19T15:24:56.024Z,8.87
2023-02-19T15:29:56.020Z,8.68
2023-02-19T15:34:55.995Z,8.68
2023-02-19T15:39:56.049Z,8.68
2023-02-19T15:44:56.005Z,8.62
2023-02-19T15:49:56.001Z,8.62
2023-02-19T15:54:56.000Z,8.5
2023-02-19T15:59:55.996Z,8.37
2023-02-19T16:04:55.992Z,8.25
2023-02-19T16:09:55.989Z,8.31
2023-02-19T16:14:56.017Z,8.06
2023-02-19T16:19:55.992Z,7.75
2023-02-19T16:24:55.986Z,7.5
2023-02-19T16:29:56.161Z,7.37
2023-02-19T16:34:55.953Z,7.06
2023-02-19T16:39:55.973Z,7.12
2023-02-19T16:44:55.934Z,6.87
2023-02-19T16:49:55.928Z,7
2023-02-19T16:54:55.959Z,7.12
2023-02-19T16:59:55.938Z,7.25
2023-02-19T17:04:56.023Z,7.25
2023-02-19T17:09:55.929Z,7.37
2023-02-19T17:14:55.932Z,7.25
2023-02-19T17:19:55.910Z,7.25
2023-02-19T17:24:55.907Z,7.31
2023-02-19T17:29:55.915Z,7.31
2023-02-19T17:34:55.910Z,7.25
2023-02-19T17:39:55.983Z,7.25
2023-02-19T17:44:55.900Z,7.25
2023-02-19T17:49:55.883Z,7.31
2023-02-19T17:54:55.870Z,7.37
2023-02-19T17:59:55.884Z,7.37
2023-02-19T18:04:55.878Z,7.43
2023-02-19T18:09:55.869Z,7.37
2023-02-19T18:14:55.877Z,7.5
2023-02-19T18:19:55.883Z,7.37
2023-02-19T18:24:55.867Z,7.43
2023-02-19T18:29:55.867Z,7.37
2023-02-19T18:34:55.858Z,7.43
2023-02-19T18:39:55.861Z,7.43
2023-02-19T18:44:55.828Z,7.31
2023-02-19T18:49:55.870Z,7.43
2023-02-19T18:54:55.817Z,7.43
2023-02-19T18:59:55.825Z,7.43
2023-02-19T19:04:55.809Z,7.43
2023-02-19T19:09:55.804Z,7.31
2023-02-19T19:14:55.809Z,7.37
2023-02-19T19:19:55.818Z,7.25
2023-02-19T19:24:55.816Z,7.25
2023-02-19T19:29:55.819Z,7.31
2023-02-19T19:34:55.814Z,7.25
2023-02-19T19:39:55.809Z,7.31
2023-02-19T19:44:55.818Z,7.31
2023-02-19T19:49:55.799Z,7.25
2023-02-19T19:59:55.781Z,7.31
2023-02-19T20:04:55.839Z,7.31
2023-02-19T20:09:55.785Z,7.37
2023-02-19T20:14:55.761Z,7.37
2023-02-19T20:24:55.736Z,7.31
2023-02-19T20:34:55.742Z,7.31
2023-02-19T20:54:55.726Z,7.18
2023-02-19T21:04:55.713Z,7.18
2023-02-19T21:19:55.712Z,7.12
2023-02-19T21:24:55.705Z,7.06
2023-02-19T21:29:55.696Z,7.06
2023-02-19T21:34:55.708Z,7.12
2023-02-19T21:39:55.674Z,7
2023-02-19T21:44:55.693Z,7
2023-02-19T21:49:55.696Z,7
2023-02-19T21:54:55.681Z,6.93
2023-02-19T21:59:55.685Z,6.93
2023-02-19T22:04:55.697Z,6.93
2023-02-19T22:09:55.677Z,6.93
2023-02-19T22:14:55.669Z,7.06
2023-02-19T22:19:55.637Z,7
2023-02-19T22:24:55.622Z,7
2023-02-19T22:29:55.640Z,7.06
2023-02-19T22:34:55.646Z,7
2023-02-19T22:39:55.639Z,7
2023-02-19T22:44:55.660Z,7.06
2023-02-19T22:49:55.643Z,7.12
2023-02-19T22:54:55.642Z,7.06
2023-02-19T22:59:55.640Z,7.06
2023-02-19T23:11:45.935Z,7
2023-02-19T23:14:55.606Z,6.93
2023-02-19T23:19:55.594Z,7
2023-02-19T23:24:55.589Z,7
2023-02-19T23:39:55.574Z,7
